»·PEaware :: N148WT KSNA-KSNA

N148WT :: KSNA-KSNA

FLIGHT INFORMATION

Flight Status: Arrived
Operator: Privately registered:
United States
More flights under this callsign
Pilot: Vlad D. (11271)
Aircraft: Unknown
(B60T)
More flights by this aircraft type
Origin: KSNA John Wayne-Orange Co
United States
Destination: KSNA John Wayne-Orange Co
United States
More flights between these airports :: More routes between these airports
Route: +SLI
File this flight plan on PilotEdge
Remarks: Practice ILS Approach
Altitude:
(Current/Filed)
4,000ft
Speed:
(Current/Filed)
160kts
Departed: 16-May-16 08:31 AM
Arrived: 16-May-16 08:51 AM
Distance/Time
Traveled:
0nm/0:20
Distance/Time
To Go:
Arrived

Flight Plot

Page will automatically refresh every two minutes.


Map Options




Map Legend


Flown Route
Filed Route
Departure Airport
Arrival Airport
Navaid (VOR, NDB)
Fix

Horizontal Profiles

Position Reports

Time Latitude Longitude Heading Altitude Ground
Speed
16-May-16 07:58 33.670225 -117.874694 23 59ft 0kts
16-May-16 07:59 33.670225 -117.874694 23 59ft 0kts
16-May-16 08:00 33.670225 -117.874694 23 59ft 0kts
16-May-16 08:01 33.670225 -117.874694 23 59ft 0kts
16-May-16 08:02 33.670227 -117.874693 22 59ft 0kts
16-May-16 08:03 33.670248 -117.874683 22 59ft 0kts
16-May-16 08:04 33.670251 -117.874682 22 59ft 0kts
16-May-16 08:05 33.670254 -117.874680 22 59ft 0kts
16-May-16 08:06 33.670257 -117.874679 21 59ft 0kts
16-May-16 08:07 33.670259 -117.874677 21 59ft 0kts
16-May-16 08:08 33.670262 -117.874676 21 59ft 0kts
16-May-16 08:09 33.670265 -117.874674 21 59ft 0kts
16-May-16 08:09 33.670268 -117.874673 21 59ft 0kts
16-May-16 08:11 33.670271 -117.874672 21 59ft 0kts
16-May-16 08:11 33.670274 -117.874670 21 59ft 0kts
16-May-16 08:13 33.670277 -117.874669 21 59ft 0kts
16-May-16 08:13 33.670280 -117.874668 21 59ft 0kts
16-May-16 08:14 33.670373 -117.874495 78 59ft 2kts
16-May-16 08:15 33.672895 -117.872125 29 59ft 14kts
16-May-16 08:16 33.676121 -117.870123 26 59ft 13kts
16-May-16 08:17 33.676623 -117.869242 193 59ft 0kts
16-May-16 08:18 33.676619 -117.869243 193 59ft 0kts
16-May-16 08:19 33.676614 -117.869244 193 59ft 0kts
16-May-16 08:20 33.676608 -117.869246 193 59ft 0kts
16-May-16 08:21 33.676594 -117.869250 193 59ft 0kts
16-May-16 08:22 33.676570 -117.869256 192 59ft 0kts
16-May-16 08:23 33.676566 -117.869258 192 59ft 0kts
16-May-16 08:24 33.677201 -117.869494 28 59ft 8kts
16-May-16 08:25 33.678113 -117.868921 29 59ft 2kts
16-May-16 08:26 33.679769 -117.867883 27 59ft 16kts
16-May-16 08:27 33.680844 -117.866459 115 59ft 0kts
16-May-16 08:28 33.680588 -117.865944 141 59ft 7kts
16-May-16 08:29 33.666554 -117.875545 220 475ft 151kts
16-May-16 08:31 33.642161 -117.919843 240 2053ft 177kts
16-May-16 08:32 33.619754 -117.962322 234 2987ft 142kts
16-May-16 08:33 33.622502 -118.008638 320 3006ft 166kts
16-May-16 08:34 33.666606 -118.000007 25 3006ft 173kts
16-May-16 08:35 33.710546 -117.975163 21 3003ft 174kts
16-May-16 08:36 33.755011 -117.951632 21 3004ft 174kts
16-May-16 08:37 33.799804 -117.929081 26 3005ft 173kts
16-May-16 08:38 33.843896 -117.904802 23 3005ft 174kts
16-May-16 08:39 33.888215 -117.880818 24 3008ft 174kts
16-May-16 08:40 33.932187 -117.856393 34 3001ft 175kts
16-May-16 08:41 33.931368 -117.804197 111 3015ft 169kts
16-May-16 08:42 33.907077 -117.758160 150 3020ft 163kts
16-May-16 08:43 33.862877 -117.758414 184 3006ft 162kts
16-May-16 08:44 33.821438 -117.776070 207 3028ft 154kts
16-May-16 08:45 33.789711 -117.797297 206 2426ft 109kts
16-May-16 08:46 33.762486 -117.813311 206 1858ft 108kts
16-May-16 08:47 33.735012 -117.831675 205 1168ft 111kts
16-May-16 08:48 33.708591 -117.847926 208 647ft 102kts
16-May-16 08:49 33.683866 -117.863641 206 116ft 98kts
16-May-16 08:49 33.675892 -117.869774 301 59ft 0kts
16-May-16 08:51 33.675947 -117.869890 297 59ft 3kts
16-May-16 08:51 33.674841 -117.870893 207 59ft 6kts
16-May-16 08:53 33.672792 -117.872157 206 59ft 6kts
16-May-16 08:53 33.671630 -117.873129 289 59ft 7kts
16-May-16 08:54 33.671157 -117.874137 292 59ft 0kts
16-May-16 08:55 33.671158 -117.874139 292 59ft 0kts
16-May-16 08:56 33.671159 -117.874142 292 59ft 0kts
16-May-16 08:57 33.671159 -117.874143 292 59ft 0kts

Navigation Log

Ident Type
Flight plan parsing failed, navigation log unavailable